This is the latest recevied weather packets stored in our database for station/object DB0MAK-13. If no packets are shown the sender has not sent any weather packets the latest 10 day(s).
| Time | Temp. | Humidity | Pressure | Rain* | Wind** | Luminosity | Snow |
|---|---|---|---|---|---|---|---|
| 1777590008 | 4.44° C | 69% | 1028.2 hPa | 0 mm | - | - | - |
| 1777589644 | 4.44° C | 69% | 1028.2 hPa | 0 mm | - | - | - |
| 1777589588 | 4.44° C | 69% | 1028.2 hPa | 0 mm | - | - | - |
| 1777589166 | 5° C | 67% | 1028.2 hPa | 0 mm | - | - | - |
| 1777589044 | 5° C | 65% | 1028.2 hPa | 0 mm | - | - | - |
| 1777588748 | 5° C | 64% | 1028.2 hPa | 0 mm | - | - | - |
| 1777588444 | 5° C | 63% | 1028 hPa | 0 mm | - | - | - |
| 1777588326 | 5.56° C | 63% | 1028 hPa | 0 mm | - | - | - |
| 1777587908 | 6.11° C | 60% | 1028.2 hPa | 0 mm | - | - | - |
| 1777587844 | 6.11° C | 60% | 1028.2 hPa | 0 mm | - | - | - |
| 1777587486 | 6.11° C | 60% | 1028 hPa | 0 mm | - | - | - |
| 1777587244 | 6.11° C | 61% | 1028.2 hPa | 0 mm | - | - | - |
| 1777587066 | 6.11° C | 61% | 1028.3 hPa | 0 mm | - | - | - |
| 1777586644 | 6.11° C | 62% | 1028 hPa | 0 mm | - | - | - |
| 1777586226 | 6.67° C | 60% | 1028 hPa | 0 mm | - | - | - |
| 1777586044 | 6.67° C | 59% | 1028 hPa | 0 mm | - | - | - |
| 1777585806 | 6.67° C | 58% | 1028 hPa | 0 mm | - | - | - |
| 1777585444 | 7.22° C | 56% | 1028 hPa | 0 mm | - | - | - |
| 1777585386 | 7.22° C | 56% | 1028 hPa | 0 mm | - | - | - |
| 1777584966 | 7.22° C | 56% | 1027.9 hPa | 0 mm | - | - | - |
| 1777584844 | 7.22° C | 57% | 1027.9 hPa | 0 mm | - | - | - |
| 1777584548 | 6.67° C | 59% | 1027.9 hPa | 0 mm | - | - | - |
| 1777584244 | 6.11° C | 61% | 1028 hPa | 0 mm | - | - | - |
| 1777584126 | 6.11° C | 61% | 1027.9 hPa | 0 mm | - | - | - |
| 1777583644 | 6.67° C | 59% | 1027.9 hPa | 0 mm | - | - | - |
* Rain latest hour (hover to see other rain measurements)
** Current wind speed in m/s (hover to see current wind gust speed)